createdAt,value
2023-01-04T00:01:13.745Z,1.00
2023-01-04T00:04:15.437Z,5.47
2023-01-04T00:07:17.202Z,5.03
2023-01-04T00:10:18.913Z,2.33
2023-01-04T00:13:20.585Z,5.03
2023-01-04T00:16:25.462Z,5.13
2023-01-04T00:19:27.174Z,3.17
2023-01-04T00:22:28.857Z,5.87
2023-01-04T00:25:30.495Z,4.33
2023-01-04T00:28:32.148Z,1.93
2023-01-04T00:31:35.056Z,4.57
2023-01-04T00:34:36.776Z,4.47
2023-01-04T00:37:38.558Z,2.90
2023-01-04T00:40:40.242Z,4.30
2023-01-04T00:43:41.907Z,1.70
2023-01-04T00:46:44.563Z,3.80
2023-01-04T00:49:46.240Z,3.97
2023-01-04T00:52:50.320Z,2.87
2023-01-04T00:55:52.049Z,3.53
2023-01-04T00:58:58.192Z,2.93
2023-01-04T01:01:59.942Z,4.10
2023-01-04T01:05:01.745Z,2.23
2023-01-04T01:08:23.705Z,3.07
2023-01-04T01:11:25.910Z,2.67
2023-01-04T01:14:27.613Z,4.77
2023-01-04T01:17:29.302Z,4.13
2023-01-04T01:20:30.956Z,2.90
2023-01-04T01:23:32.828Z,2.23
2023-01-04T01:26:34.579Z,3.23
2023-01-04T01:29:36.275Z,3.03
2023-01-04T01:32:37.961Z,7.47
2023-01-04T01:35:39.617Z,2.33
2023-01-04T01:38:42.611Z,5.43
2023-01-04T01:41:44.324Z,4.30
2023-01-04T01:44:46.066Z,1.07
2023-01-04T01:47:50.452Z,3.13
2023-01-04T01:50:56.528Z,3.77
2023-01-04T01:54:04.829Z,3.20
2023-01-04T01:57:10.227Z,5.47
2023-01-04T02:00:14.029Z,2.90
2023-01-04T02:03:19.680Z,5.03
2023-01-04T02:06:29.382Z,6.80
2023-01-04T02:09:32.326Z,6.77
2023-01-04T02:12:34.228Z,6.97
2023-01-04T02:15:53.925Z,6.37
2023-01-04T02:19:04.405Z,6.43
2023-01-04T02:22:30.760Z,5.60
2023-01-04T02:25:51.366Z,1.77
2023-01-04T02:29:05.390Z,6.30
2023-01-04T02:32:15.382Z,2.63
2023-01-04T02:35:41.540Z,3.57
2023-01-04T02:39:05.220Z,4.90
2023-01-04T02:42:10.390Z,5.90
2023-01-04T02:45:15.396Z,3.93
2023-01-04T02:48:35.570Z,4.83
2023-01-04T02:51:38.558Z,5.40
2023-01-04T02:54:41.511Z,2.00
2023-01-04T02:58:03.554Z,1.20
2023-01-04T03:01:41.914Z,4.43
2023-01-04T03:05:35.648Z,5.83
2023-01-04T03:08:55.972Z,6.27
2023-01-04T03:12:26.678Z,2.27
2023-01-04T03:15:33.481Z,0.60
2023-01-04T03:18:43.085Z,1.70
2023-01-04T03:21:46.216Z,7.33
2023-01-04T03:25:06.456Z,2.60
2023-01-04T03:28:28.929Z,5.33
2023-01-04T03:31:59.141Z,3.30
2023-01-04T03:35:19.521Z,6.23
2023-01-04T03:38:54.142Z,1.17
2023-01-04T03:42:32.350Z,1.50
2023-01-04T03:46:01.395Z,4.07
2023-01-04T03:49:33.567Z,1.70
2023-01-04T03:52:36.410Z,3.40
2023-01-04T03:55:43.142Z,2.47
2023-01-04T03:58:45.493Z,3.37
2023-01-04T04:01:47.286Z,3.03
2023-01-04T04:05:07.635Z,7.13
2023-01-04T04:08:24.554Z,3.57
2023-01-04T04:11:32.605Z,3.20
2023-01-04T04:14:34.544Z,3.40
2023-01-04T04:17:36.417Z,7.83
2023-01-04T04:20:38.151Z,1.57
2023-01-04T04:23:39.928Z,1.17
2023-01-04T04:26:41.599Z,2.13
2023-01-04T04:29:43.260Z,1.43
2023-01-04T04:32:44.935Z,2.00
2023-01-04T04:35:51.394Z,6.90
2023-01-04T04:38:53.081Z,4.87
2023-01-04T04:41:54.806Z,3.70
2023-01-04T04:44:56.578Z,5.20
2023-01-04T04:47:58.245Z,2.83
2023-01-04T04:50:59.945Z,1.30
2023-01-04T04:54:02.311Z,1.17
2023-01-04T04:57:04.532Z,2.30
2023-01-04T05:00:07.321Z,3.00
2023-01-04T05:03:09.124Z,1.97
2023-01-04T05:06:10.969Z,3.70
2023-01-04T05:09:14.253Z,6.53
2023-01-04T05:12:34.881Z,5.00
2023-01-04T05:15:47.744Z,2.13
2023-01-04T05:18:49.420Z,2.90
2023-01-04T05:21:51.148Z,3.87
2023-01-04T05:24:52.819Z,3.77
2023-01-04T05:27:54.499Z,6.60
2023-01-04T05:30:57.130Z,15.43
2023-01-04T05:33:58.821Z,2.57
2023-01-04T05:37:00.987Z,2.90
2023-01-04T05:40:02.749Z,7.10
2023-01-04T05:43:04.514Z,2.80
2023-01-04T05:46:06.236Z,3.53
2023-01-04T05:49:07.949Z,6.30
2023-01-04T05:52:10.280Z,4.10
2023-01-04T05:55:12.269Z,7.03
2023-01-04T05:58:13.991Z,2.97
2023-01-04T06:01:15.724Z,2.83
2023-01-04T06:04:17.475Z,8.73
2023-01-04T06:07:19.178Z,2.27
2023-01-04T06:10:21.147Z,2.67
2023-01-04T06:13:22.889Z,2.77
2023-01-04T06:16:24.826Z,2.90
2023-01-04T06:19:27.034Z,3.90
2023-01-04T06:22:29.038Z,3.50
2023-01-04T06:25:30.681Z,2.80
2023-01-04T06:28:37.152Z,3.90
2023-01-04T06:31:42.350Z,3.27
2023-01-04T06:34:44.726Z,2.33
2023-01-04T06:37:46.423Z,4.13
2023-01-04T06:40:48.163Z,4.13
2023-01-04T06:43:50.304Z,4.10
2023-01-04T06:46:52.016Z,2.67
2023-01-04T06:49:53.792Z,3.37
2023-01-04T06:52:55.499Z,3.53
2023-01-04T06:55:57.578Z,2.53
2023-01-04T06:58:59.751Z,4.43
2023-01-04T07:02:01.507Z,3.77
2023-01-04T07:05:03.796Z,3.80
2023-01-04T07:08:08.235Z,4.33
2023-01-04T07:11:10.308Z,2.47
2023-01-04T07:14:12.094Z,3.77
2023-01-04T07:17:13.743Z,2.47
2023-01-04T07:20:15.749Z,4.13
2023-01-04T07:23:17.464Z,3.70
2023-01-04T07:26:19.117Z,2.23
2023-01-04T07:29:22.382Z,3.13
2023-01-04T07:32:24.199Z,6.20
2023-01-04T07:35:26.415Z,4.90
2023-01-04T07:38:28.336Z,3.40
2023-01-04T07:41:29.999Z,1.47
2023-01-04T07:44:31.747Z,2.30
2023-01-04T07:47:33.565Z,5.60
2023-01-04T07:50:35.299Z,1.17
2023-01-04T07:53:36.978Z,1.83
2023-01-04T07:56:38.641Z,2.53
2023-01-04T07:59:40.407Z,3.80
2023-01-04T08:02:42.254Z,2.93
2023-01-04T08:05:44.326Z,1.70
2023-01-04T08:08:46.518Z,2.80
2023-01-04T08:11:48.247Z,3.97
2023-01-04T08:14:49.922Z,2.40
2023-01-04T08:17:52.226Z,4.73
2023-01-04T08:21:09.400Z,4.90
2023-01-04T08:24:12.794Z,4.30
2023-01-04T08:27:14.461Z,2.70
2023-01-04T08:30:16.165Z,2.70
2023-01-04T08:33:17.851Z,5.50
2023-01-04T08:36:25.991Z,6.60
2023-01-04T08:39:29.552Z,5.93
2023-01-04T08:42:32.145Z,4.07
2023-01-04T08:45:34.066Z,3.50
2023-01-04T08:48:36.574Z,4.13
2023-01-04T08:51:38.464Z,3.83
2023-01-04T08:54:40.176Z,4.30
2023-01-04T08:57:42.036Z,3.23
2023-01-04T09:00:43.767Z,2.60
2023-01-04T09:03:45.424Z,5.83
2023-01-04T09:06:47.104Z,2.60
2023-01-04T09:09:48.806Z,2.77
2023-01-04T09:12:50.996Z,3.53
2023-01-04T09:15:52.738Z,4.13
2023-01-04T09:18:55.420Z,3.03
2023-01-04T09:21:57.162Z,3.80
2023-01-04T09:24:59.086Z,12.73
2023-01-04T09:28:00.747Z,4.00
2023-01-04T09:31:10.814Z,2.13
2023-01-04T09:34:15.119Z,3.37
2023-01-04T09:37:18.178Z,5.07
2023-01-04T09:40:23.736Z,3.70
2023-01-04T09:43:28.711Z,3.07
2023-01-04T09:46:39.240Z,4.97
2023-01-04T09:49:45.797Z,4.20
2023-01-04T09:53:02.882Z,2.33
2023-01-04T09:56:23.946Z,3.23
2023-01-04T09:59:31.439Z,9.27
2023-01-04T10:02:42.836Z,12.13
2023-01-04T10:05:44.829Z,5.77
2023-01-04T10:08:46.693Z,4.27
2023-01-04T10:12:03.479Z,6.00
2023-01-04T10:15:27.066Z,4.77
2023-01-04T10:19:36.929Z,8.87
2023-01-04T10:22:30.282Z,8.33
2023-01-04T10:25:48.068Z,6.73
2023-01-04T10:29:19.628Z,6.23
2023-01-04T10:32:43.455Z,7.30
2023-01-04T10:35:45.989Z,4.17
2023-01-04T10:38:59.438Z,6.53
2023-01-04T10:42:07.696Z,2.47
2023-01-04T10:45:33.694Z,3.97
2023-01-04T10:48:49.953Z,4.63
2023-01-04T10:52:00.607Z,7.27
2023-01-04T10:55:07.139Z,3.43
2023-01-04T10:58:22.305Z,7.87
2023-01-04T11:01:37.132Z,6.47
2023-01-04T11:04:52.452Z,5.07
2023-01-04T11:08:01.328Z,5.30
2023-01-04T11:11:10.749Z,3.60
2023-01-04T11:14:13.377Z,4.03
2023-01-04T11:17:15.319Z,9.27
2023-01-04T11:20:17.386Z,2.77
2023-01-04T11:23:20.549Z,6.60
2023-01-04T11:26:30.253Z,7.70
2023-01-04T11:29:58.082Z,4.50
2023-01-04T11:33:03.373Z,2.80
2023-01-04T11:36:05.325Z,6.17
2023-01-04T11:39:20.653Z,6.43
2023-01-04T11:42:22.558Z,4.10
2023-01-04T11:45:28.167Z,5.77
2023-01-04T11:48:41.945Z,7.57
2023-01-04T11:51:43.620Z,2.40
2023-01-04T11:54:45.300Z,5.97
2023-01-04T11:57:48.177Z,2.27
2023-01-04T12:00:57.575Z,2.30
2023-01-04T12:04:00.815Z,5.70
2023-01-04T12:07:03.906Z,2.63
2023-01-04T12:10:26.509Z,5.07
2023-01-04T12:13:29.193Z,2.50
2023-01-04T12:16:40.425Z,2.67
2023-01-04T12:19:44.793Z,3.63
2023-01-04T12:22:50.420Z,3.50
2023-01-04T12:25:57.138Z,3.10
2023-01-04T12:29:25.782Z,4.33
2023-01-04T12:32:27.684Z,3.77
2023-01-04T12:35:58.548Z,5.57
2023-01-04T12:39:15.931Z,5.43
2023-01-04T12:42:25.819Z,2.53
2023-01-04T12:45:33.553Z,2.67
2023-01-04T12:49:06.012Z,3.30
2023-01-04T12:55:35.139Z,2.07
2023-01-04T13:02:44.144Z,2.10
2023-01-04T13:05:57.225Z,2.00
2023-01-04T13:12:27.735Z,2.30
2023-01-04T13:15:56.805Z,2.77
2023-01-04T13:19:01.437Z,4.90
2023-01-04T13:22:17.394Z,2.93
2023-01-04T13:25:21.060Z,1.00
2023-01-04T13:28:23.667Z,7.60
2023-01-04T13:31:25.396Z,4.77
2023-01-04T13:34:47.078Z,4.33
2023-01-04T13:37:50.844Z,1.53
2023-01-04T13:40:52.586Z,0.90
2023-01-04T13:44:15.091Z,3.03
2023-01-04T13:47:16.796Z,1.37
2023-01-04T13:50:32.870Z,1.67
2023-01-04T13:53:34.534Z,9.33
2023-01-04T13:56:36.381Z,12.00
2023-01-04T13:59:38.182Z,1.80
2023-01-04T14:02:40.053Z,4.53
2023-01-04T14:05:48.529Z,4.17
2023-01-04T14:09:04.601Z,2.63
2023-01-04T14:12:16.266Z,0.40
2023-01-04T14:15:22.540Z,5.33
2023-01-04T14:18:27.381Z,2.17
2023-01-04T14:21:36.800Z,6.93
2023-01-04T14:28:22.383Z,4.40
2023-01-04T14:31:30.148Z,3.30
2023-01-04T14:34:36.022Z,3.40
2023-01-04T14:37:37.713Z,1.53
2023-01-04T14:40:40.739Z,2.87
2023-01-04T14:43:48.647Z,3.03
2023-01-04T14:46:55.738Z,3.40
2023-01-04T14:49:57.503Z,7.53
2023-01-04T14:52:59.159Z,1.50
2023-01-04T14:56:00.854Z,2.03
2023-01-04T14:59:02.635Z,4.50
2023-01-04T15:02:04.365Z,1.37
2023-01-04T15:05:06.206Z,1.70
2023-01-04T15:08:11.213Z,2.23
2023-01-04T15:11:13.863Z,1.03
2023-01-04T15:14:15.637Z,2.90
2023-01-04T15:17:17.325Z,3.20
2023-01-04T15:20:19.075Z,2.10
2023-01-04T15:23:20.829Z,2.40
2023-01-04T15:26:22.569Z,4.83
2023-01-04T15:29:24.355Z,1.53
2023-01-04T15:32:26.277Z,4.30
2023-01-04T15:35:27.952Z,2.60
2023-01-04T15:38:29.640Z,4.33
2023-01-04T15:41:49.767Z,4.23
2023-01-04T15:44:51.427Z,1.87
2023-01-04T15:47:53.250Z,1.13
2023-01-04T15:50:55.003Z,2.30
2023-01-04T15:53:56.804Z,1.03
2023-01-04T15:56:58.552Z,3.80
2023-01-04T16:00:00.234Z,0.90
2023-01-04T16:03:01.972Z,2.00
2023-01-04T16:06:05.572Z,3.40
2023-01-04T16:09:08.198Z,2.67
2023-01-04T16:12:28.611Z,2.47
2023-01-04T16:15:30.301Z,8.63
2023-01-04T16:18:32.741Z,3.77
2023-01-04T16:21:34.625Z,1.80
2023-01-04T16:27:57.980Z,4.33
2023-01-04T16:31:00.487Z,1.53
2023-01-04T16:34:03.043Z,10.13
2023-01-04T16:37:04.783Z,3.80
2023-01-04T16:40:08.526Z,7.63
2023-01-04T16:43:10.792Z,4.93
2023-01-04T16:46:12.811Z,5.97
2023-01-04T16:49:16.394Z,10.33
2023-01-04T16:52:18.443Z,4.30
2023-01-04T16:55:23.826Z,7.00
2023-01-04T16:58:25.999Z,7.20
2023-01-04T17:01:30.332Z,9.20
2023-01-04T17:04:32.137Z,6.30
2023-01-04T17:07:34.403Z,13.03
2023-01-04T17:10:37.154Z,6.97
2023-01-04T17:13:39.374Z,7.57
2023-01-04T17:16:42.061Z,11.20
2023-01-04T17:19:44.716Z,9.47
2023-01-04T17:22:46.404Z,9.43
2023-01-04T17:25:48.166Z,13.83
2023-01-04T17:28:51.225Z,12.57
2023-01-04T17:31:53.000Z,8.33
2023-01-04T17:34:54.718Z,6.07
2023-01-04T17:37:56.523Z,8.43
2023-01-04T17:41:09.886Z,12.83
2023-01-04T17:44:11.604Z,8.83
2023-01-04T17:47:13.296Z,14.23
2023-01-04T17:50:15.725Z,10.63
2023-01-04T17:53:17.413Z,8.83
2023-01-04T17:56:19.696Z,7.27
2023-01-04T17:59:21.403Z,7.93
2023-01-04T18:02:23.147Z,5.87
2023-01-04T18:05:24.784Z,8.17
2023-01-04T18:08:26.422Z,9.97
2023-01-04T18:11:28.598Z,6.97
2023-01-04T18:14:30.329Z,8.87
2023-01-04T18:17:32.255Z,7.97
2023-01-04T18:20:33.984Z,10.17
2023-01-04T18:23:35.838Z,11.70
2023-01-04T18:27:10.807Z,9.43
2023-01-04T18:30:00.937Z,8.07
2023-01-04T18:33:03.261Z,8.67
2023-01-04T18:36:06.969Z,12.80
2023-01-04T18:39:11.071Z,8.90
2023-01-04T18:42:12.791Z,9.97
2023-01-04T18:45:15.386Z,10.03
2023-01-04T18:48:17.028Z,10.37
2023-01-04T18:51:20.603Z,9.60
2023-01-04T18:54:22.323Z,12.53
2023-01-04T18:57:24.037Z,11.53
2023-01-04T19:00:29.729Z,7.70
2023-01-04T19:03:32.340Z,12.93
2023-01-04T19:06:34.158Z,23.97
2023-01-04T19:09:35.847Z,16.53
2023-01-04T19:12:38.757Z,11.30
2023-01-04T19:15:47.531Z,8.47
2023-01-04T19:18:49.541Z,15.17
2023-01-04T19:21:51.276Z,11.43
2023-01-04T19:24:53.065Z,14.53
2023-01-04T19:27:54.719Z,16.27
2023-01-04T19:30:56.455Z,14.93
2023-01-04T19:33:58.297Z,12.33
2023-01-04T19:37:00.274Z,14.23
2023-01-04T19:40:02.155Z,9.97
2023-01-04T19:43:04.903Z,17.30
2023-01-04T19:46:11.654Z,24.47
2023-01-04T19:49:15.441Z,14.70
2023-01-04T19:52:17.466Z,26.00
2023-01-04T19:55:19.159Z,20.73
2023-01-04T19:58:20.846Z,11.10
2023-01-04T20:01:23.686Z,16.77
2023-01-04T20:04:27.658Z,17.00
2023-01-04T20:07:29.292Z,15.33
2023-01-04T20:10:30.985Z,22.13
2023-01-04T20:13:33.515Z,13.37
2023-01-04T20:16:35.240Z,27.33
2023-01-04T20:19:36.950Z,23.03
2023-01-04T20:22:38.717Z,20.93
2023-01-04T20:25:48.067Z,20.90
2023-01-04T20:28:49.784Z,24.97
2023-01-04T20:31:51.482Z,18.40
2023-01-04T20:34:53.147Z,19.37
2023-01-04T20:37:56.747Z,22.90
2023-01-04T20:41:01.727Z,22.90
2023-01-04T20:44:03.611Z,17.87
2023-01-04T20:47:05.323Z,21.63
2023-01-04T20:50:09.399Z,22.23
2023-01-04T20:53:11.466Z,25.20
2023-01-04T20:56:22.191Z,28.20
2023-01-04T20:59:23.935Z,29.83
2023-01-04T21:02:25.769Z,27.97
2023-01-04T21:05:27.536Z,25.50
2023-01-04T21:08:29.750Z,22.70
2023-01-04T21:11:31.486Z,24.40
2023-01-04T21:14:35.616Z,20.83
2023-01-04T21:17:38.117Z,24.30
2023-01-04T21:20:41.392Z,21.37
2023-01-04T21:23:44.299Z,23.03
2023-01-04T21:26:46.014Z,17.63
2023-01-04T21:29:47.746Z,29.90
2023-01-04T21:32:49.415Z,11.37
2023-01-04T21:35:51.109Z,16.80
2023-01-04T21:38:58.146Z,26.00
2023-01-04T21:41:59.812Z,24.03
2023-01-04T21:45:01.572Z,27.23
2023-01-04T21:48:03.347Z,25.50
2023-01-04T21:51:06.509Z,20.73
2023-01-04T21:54:08.968Z,19.67
2023-01-04T21:57:10.701Z,29.10
2023-01-04T22:00:12.610Z,24.37
2023-01-04T22:03:14.417Z,18.30
2023-01-04T22:06:16.424Z,16.30
2023-01-04T22:09:18.125Z,26.97
2023-01-04T22:12:19.906Z,18.90
2023-01-04T22:15:21.585Z,19.83
2023-01-04T22:18:23.326Z,14.67
2023-01-04T22:21:26.458Z,26.40
2023-01-04T22:24:31.462Z,23.20
2023-01-04T22:27:37.309Z,21.77
2023-01-04T22:30:41.383Z,30.17
2023-01-04T22:33:43.309Z,14.93
2023-01-04T22:36:45.157Z,19.57
2023-01-04T22:39:46.866Z,19.57
2023-01-04T22:42:48.746Z,17.67
2023-01-04T22:45:50.423Z,21.43
2023-01-04T22:48:52.132Z,26.23
2023-01-04T22:51:55.669Z,32.00
2023-01-04T22:54:57.394Z,23.67
2023-01-04T22:57:59.085Z,22.40
2023-01-04T23:01:00.834Z,17.27
2023-01-04T23:04:03.140Z,19.60
2023-01-04T23:07:05.027Z,27.47
2023-01-04T23:10:07.055Z,17.43
2023-01-04T23:13:08.757Z,11.57
2023-01-04T23:16:13.492Z,22.23
2023-01-04T23:19:15.694Z,17.43
2023-01-04T23:22:17.452Z,21.03
2023-01-04T23:25:19.194Z,14.93
2023-01-04T23:28:21.225Z,16.80
2023-01-04T23:31:24.864Z,14.50
2023-01-04T23:34:26.923Z,21.47
2023-01-04T23:37:28.655Z,24.13
2023-01-04T23:40:30.338Z,29.10
2023-01-04T23:43:36.868Z,22.13
2023-01-04T23:46:38.577Z,12.37
2023-01-04T23:49:40.381Z,19.53
2023-01-04T23:52:42.106Z,24.13
2023-01-04T23:55:43.759Z,24.30
2023-01-04T23:58:45.499Z,19.87
